Time;durP1;ratioP1;P1;durP2;ratioP2;P2;SDS_P1;SDS_P2;PMS_P1;PMS_P2;Temp;Humidity;BMP_temperature;BMP_pressure;BME280_temperature;BME280_humidity;BME280_pressure;Samples;Min_cycle;Max_cycle;Signal;HPM_P1;HPM_P2
2021/03/03 00:02:18;;;;;;;10.23;5.57;;;2.90;99.90;;;;;;4972124;28;20411;-81
2021/03/03 00:04:45;;;;;;;11.43;6.10;;;2.80;99.90;;;;;;4961824;28;20172;-80
2021/03/03 00:07:11;;;;;;;14.20;7.63;;;3.00;99.90;;;;;;4963677;28;20399;-80
2021/03/03 00:09:36;;;;;;;8.70;5.73;;;3.10;99.90;;;;;;4964727;28;20526;-80
2021/03/03 00:12:02;;;;;;;11.40;7.90;;;3.20;99.90;;;;;;4965762;28;20163;-79
2021/03/03 00:14:28;;;;;;;9.83;5.70;;;3.10;99.90;;;;;;4965135;28;20282;-80
2021/03/03 00:16:54;;;;;;;8.67;6.20;;;3.10;99.90;;;;;;4963352;28;20410;-81
2021/03/03 00:19:20;;;;;;;8.43;6.97;;;3.10;99.90;;;;;;4960811;28;20207;-82
2021/03/03 00:21:45;;;;;;;8.50;5.73;;;3.10;99.90;;;;;;4957761;29;20178;-81
2021/03/03 00:24:11;;;;;;;10.83;6.70;;;3.20;99.90;;;;;;4961235;28;20164;-81
2021/03/03 00:26:37;;;;;;;10.43;7.57;;;3.20;99.90;;;;;;4960786;28;20565;-81
2021/03/03 00:29:03;;;;;;;11.00;7.07;;;3.00;99.90;;;;;;4960386;28;20199;-81
2021/03/03 00:31:29;;;;;;;17.17;7.70;;;2.90;99.90;;;;;;4961047;28;20886;-81
2021/03/03 00:33:55;;;;;;;9.77;7.47;;;2.80;99.90;;;;;;4961243;28;20584;-82
2021/03/03 00:36:20;;;;;;;11.47;7.87;;;2.90;99.90;;;;;;4959795;28;20219;-79
2021/03/03 00:38:46;;;;;;;8.93;6.60;;;2.80;99.90;;;;;;4958980;29;20170;-81
2021/03/03 00:41:12;;;;;;;14.53;7.20;;;2.60;99.90;;;;;;4960210;28;20205;-81
2021/03/03 00:43:37;;;;;;;16.10;8.70;;;2.80;99.90;;;;;;4959518;28;20178;-81
2021/03/03 00:46:03;;;;;;;13.00;7.63;;;2.90;99.90;;;;;;4958538;29;20199;-81
2021/03/03 00:48:29;;;;;;;17.40;8.13;;;3.00;99.90;;;;;;4958483;29;20190;-81
2021/03/03 00:50:55;;;;;;;14.73;8.97;;;3.00;99.90;;;;;;4957881;29;20610;-81
2021/03/03 00:53:21;;;;;;;17.00;9.43;;;3.20;99.90;;;;;;4957547;29;20410;-80
2021/03/03 00:55:51;;;;;;;13.40;9.43;;;3.40;99.90;;;;;;4959459;28;20310;-81
2021/03/03 00:58:18;;;;;;;15.83;8.10;;;3.80;99.90;;;;;;4960171;28;20163;-81
2021/03/03 01:00:44;;;;;;;12.77;7.03;;;3.90;99.90;;;;;;4960335;28;20490;-82
2021/03/03 01:03:09;;;;;;;10.83;6.70;;;3.70;99.90;;;;;;4959813;28;20799;-82
2021/03/03 01:05:38;;;;;;;9.87;7.50;;;3.80;99.90;;;;;;4959939;28;20202;-81
2021/03/03 01:08:04;;;;;;;15.53;10.00;;;4.10;99.90;;;;;;4959946;28;20258;-81
2021/03/03 01:10:30;;;;;;;14.80;8.77;;;4.40;99.90;;;;;;4959798;28;20530;-81
2021/03/03 01:12:56;;;;;;;9.93;8.73;;;4.60;99.90;;;;;;4959521;28;20405;-81
2021/03/03 01:15:22;;;;;;;11.00;8.07;;;4.70;99.90;;;;;;4960469;28;20196;-81
2021/03/03 01:17:48;;;;;;;13.10;7.83;;;4.80;99.90;;;;;;4960218;28;20395;-81
2021/03/03 01:20:14;;;;;;;13.20;9.20;;;4.90;99.90;;;;;;4959781;28;20594;-81
2021/03/03 01:22:40;;;;;;;13.27;6.93;;;5.00;99.90;;;;;;4959277;28;20416;-81
2021/03/03 01:25:07;;;;;;;10.87;8.10;;;5.20;99.90;;;;;;4958808;28;20439;-80
2021/03/03 01:27:32;;;;;;;16.53;8.40;;;5.10;99.90;;;;;;4960257;28;20274;-80
2021/03/03 01:29:58;;;;;;;14.00;7.17;;;5.10;99.90;;;;;;4960293;28;20474;-81
2021/03/03 01:32:24;;;;;;;9.83;7.40;;;5.10;99.90;;;;;;4962026;28;20171;-81
2021/03/03 01:34:50;;;;;;;15.60;9.23;;;5.10;99.90;;;;;;4964371;28;20178;-81
2021/03/03 01:37:15;;;;;;;12.00;8.93;;;4.90;99.90;;;;;;4963702;28;20227;-81
2021/03/03 01:39:41;;;;;;;14.10;9.40;;;5.00;99.90;;;;;;4965706;28;20170;-81
2021/03/03 01:42:07;;;;;;;16.63;10.80;;;5.10;99.90;;;;;;4964053;29;20167;-81
2021/03/03 01:44:33;;;;;;;16.57;9.47;;;5.20;99.90;;;;;;4965587;28;20163;-81
2021/03/03 01:46:58;;;;;;;16.90;8.43;;;5.10;99.90;;;;;;4966155;29;20167;-78
2021/03/03 01:49:24;;;;;;;19.87;9.30;;;5.10;99.90;;;;;;4966133;28;20234;-80
2021/03/03 01:51:50;;;;;;;12.07;8.63;;;5.10;99.90;;;;;;4963294;28;20175;-80
2021/03/03 01:54:16;;;;;;;10.77;8.80;;;5.00;99.90;;;;;;4963522;28;20160;-81
2021/03/03 01:56:42;;;;;;;14.73;10.63;;;4.90;99.90;;;;;;4963648;28;20163;-81
2021/03/03 01:59:07;;;;;;;15.47;9.03;;;4.80;99.90;;;;;;4964820;28;20167;-81
2021/03/03 02:01:34;;;;;;;15.17;9.10;;;4.80;99.90;;;;;;4964424;28;20202;-81
2021/03/03 02:03:59;;;;;;;11.87;8.93;;;4.30;99.90;;;;;;4963843;28;20395;-81
2021/03/03 02:06:36;;;;;;;12.07;8.37;;;3.80;99.90;;;;;;4967621;28;20163;-78
2021/03/03 02:09:07;;;;;;;16.50;9.77;;;3.40;99.90;;;;;;4968390;28;20597;-79
2021/03/03 02:11:45;;;;;;;16.23;8.40;;;3.10;99.90;;;;;;4966387;28;20438;-80
2021/03/03 02:14:24;;;;;;;11.77;9.07;;;2.80;99.90;;;;;;4966646;28;20402;-79
2021/03/03 02:16:51;;;;;;;12.67;7.23;;;2.60;99.90;;;;;;4967368;29;20759;-79
2021/03/03 02:19:22;;;;;;;11.33;7.70;;;2.40;99.90;;;;;;4968782;28;20483;-79
2021/03/03 02:21:56;;;;;;;15.93;8.73;;;2.40;99.90;;;;;;4966099;28;20478;-81
2021/03/03 02:24:24;;;;;;;14.10;9.50;;;2.30;99.90;;;;;;4963697;28;20403;-80
2021/03/03 02:26:53;;;;;;;14.43;7.80;;;2.20;99.90;;;;;;4962478;29;20462;-81
2021/03/03 02:29:24;;;;;;;16.60;8.77;;;2.30;99.90;;;;;;4963666;28;20443;-81
2021/03/03 02:31:51;;;;;;;23.43;10.67;;;2.20;99.90;;;;;;4961778;29;20399;-81
2021/03/03 02:34:19;;;;;;;22.17;8.90;;;2.10;99.90;;;;;;4963670;28;20759;-80
2021/03/03 02:36:48;;;;;;;16.37;7.73;;;2.10;99.90;;;;;;4963964;28;20458;-81
2021/03/03 02:39:16;;;;;;;14.13;8.53;;;2.20;99.90;;;;;;4969023;28;20391;-80
2021/03/03 02:41:42;;;;;;;16.50;8.80;;;2.30;99.90;;;;;;4970430;28;20403;-79
2021/03/03 02:44:11;;;;;;;8.93;7.97;;;2.40;99.90;;;;;;4969500;28;20471;-78
2021/03/03 02:46:38;;;;;;;10.57;6.73;;;2.60;99.90;;;;;;4969967;28;20410;-80
2021/03/03 02:49:04;;;;;;;15.87;7.90;;;2.60;99.90;;;;;;4968411;28;20411;-80
2021/03/03 02:51:31;;;;;;;19.20;7.60;;;2.40;99.90;;;;;;4962718;29;20403;-80
2021/03/03 02:53:57;;;;;;;12.27;8.77;;;2.30;99.90;;;;;;4962429;28;20414;-81
2021/03/03 02:56:24;;;;;;;15.07;7.67;;;2.10;99.90;;;;;;4962866;28;20399;-80
2021/03/03 02:58:51;;;;;;;13.70;7.93;;;2.10;99.90;;;;;;4962050;28;20403;-79
2021/03/03 03:01:18;;;;;;;9.03;6.77;;;2.00;99.90;;;;;;4962429;28;20399;-81
2021/03/03 03:03:53;;;;;;;12.27;7.23;;;1.70;99.90;;;;;;4962755;28;20394;-80
2021/03/03 03:06:23;;;;;;;14.10;8.23;;;1.90;99.90;;;;;;4961988;28;20414;-81
2021/03/03 03:08:51;;;;;;;9.23;6.30;;;2.00;99.90;;;;;;4961809;28;20416;-80
2021/03/03 03:11:22;;;;;;;8.80;5.10;;;1.90;99.90;;;;;;4960716;29;20850;-81
2021/03/03 03:13:52;;;;;;;13.40;8.57;;;1.70;99.90;;;;;;4962403;28;20483;-81
2021/03/03 03:16:21;;;;;;;9.77;6.93;;;1.60;99.90;;;;;;4961503;28;20435;-81
2021/03/03 03:18:52;;;;;;;9.17;7.97;;;1.60;99.90;;;;;;4961701;28;20395;-81
2021/03/03 03:21:19;;;;;;;9.27;6.67;;;1.40;99.90;;;;;;4961790;28;20454;-81
2021/03/03 03:23:46;;;;;;;10.53;6.27;;;1.50;99.90;;;;;;4961235;28;20406;-80
2021/03/03 03:26:13;;;;;;;11.27;6.47;;;1.30;99.90;;;;;;4961993;28;20406;-81
2021/03/03 03:28:40;;;;;;;9.40;6.17;;;1.40;99.90;;;;;;4961238;28;20792;-81
2021/03/03 03:31:07;;;;;;;12.63;8.73;;;1.20;99.90;;;;;;4961347;28;20512;-81
2021/03/03 03:33:33;;;;;;;8.23;7.50;;;1.30;99.90;;;;;;4961313;28;20392;-81
2021/03/03 03:36:01;;;;;;;15.90;6.90;;;1.20;99.90;;;;;;4961366;28;20431;-80
2021/03/03 03:38:28;;;;;;;9.00;5.53;;;1.00;99.90;;;;;;4962028;28;20526;-80
2021/03/03 03:40:54;;;;;;;9.57;7.20;;;1.00;99.90;;;;;;4961399;28;20542;-81
2021/03/03 03:43:21;;;;;;;11.37;5.90;;;1.20;99.90;;;;;;4961872;28;20840;-81
2021/03/03 03:45:49;;;;;;;7.63;5.47;;;1.30;99.90;;;;;;4961255;28;20171;-80
2021/03/03 03:48:17;;;;;;;8.43;5.80;;;1.30;99.90;;;;;;4961038;28;20395;-81
2021/03/03 03:50:43;;;;;;;10.67;6.93;;;1.40;99.90;;;;;;4961293;28;20493;-81
2021/03/03 03:53:09;;;;;;;8.13;6.37;;;1.40;99.90;;;;;;4960974;28;20399;-81
2021/03/03 03:55:37;;;;;;;13.87;7.47;;;1.30;99.90;;;;;;4960267;28;20524;-81
2021/03/03 03:58:05;;;;;;;10.80;7.70;;;1.60;99.90;;;;;;4961232;28;20395;-81
2021/03/03 04:00:31;;;;;;;9.40;6.60;;;1.70;99.90;;;;;;4961506;28;20390;-80
2021/03/03 04:02:57;;;;;;;8.03;6.53;;;1.60;99.90;;;;;;4961065;28;20442;-81
2021/03/03 04:05:25;;;;;;;10.00;7.77;;;1.60;99.90;;;;;;4961365;28;20395;-81
2021/03/03 04:07:51;;;;;;;10.23;7.27;;;1.60;99.90;;;;;;4960906;28;20491;-81
2021/03/03 04:10:21;;;;;;;7.00;5.93;;;1.60;99.90;;;;;;4961439;28;20481;-80
2021/03/03 04:12:47;;;;;;;7.80;6.97;;;1.60;99.90;;;;;;4961613;28;20485;-80
2021/03/03 04:15:13;;;;;;;11.30;7.67;;;1.50;99.90;;;;;;4961001;28;20395;-81
2021/03/03 04:17:40;;;;;;;8.40;5.40;;;1.50;99.90;;;;;;4959804;29;20178;-81
2021/03/03 04:20:08;;;;;;;14.57;7.60;;;1.60;99.90;;;;;;4961327;28;20396;-81
2021/03/03 04:22:34;;;;;;;11.20;6.60;;;1.70;99.90;;;;;;4960391;28;20407;-81
2021/03/03 04:25:01;;;;;;;13.27;7.53;;;1.70;99.90;;;;;;4960461;28;20414;-81
2021/03/03 04:27:27;;;;;;;11.50;6.50;;;1.80;99.90;;;;;;4960372;28;20414;-81
2021/03/03 04:29:53;;;;;;;12.20;7.10;;;1.90;99.90;;;;;;4960200;28;20443;-80
2021/03/03 04:32:18;;;;;;;15.50;7.13;;;1.80;99.90;;;;;;4960808;28;20223;-81
2021/03/03 04:34:44;;;;;;;10.70;7.37;;;1.70;99.90;;;;;;4960532;28;20171;-80
2021/03/03 04:37:10;;;;;;;7.37;6.40;;;1.70;99.90;;;;;;4960048;28;20249;-80
2021/03/03 04:39:36;;;;;;;7.43;6.33;;;1.70;99.90;;;;;;4960888;28;20681;-81
2021/03/03 04:42:03;;;;;;;10.13;7.00;;;1.80;99.90;;;;;;4958943;29;20164;-81
2021/03/03 04:44:30;;;;;;;9.23;6.93;;;1.70;99.90;;;;;;4960035;28;20174;-81
2021/03/03 04:46:56;;;;;;;10.93;8.33;;;1.80;99.90;;;;;;4959066;28;20414;-81
2021/03/03 04:49:22;;;;;;;9.70;6.80;;;1.80;99.90;;;;;;4959894;28;20474;-81
2021/03/03 04:51:47;;;;;;;12.50;6.30;;;1.90;99.90;;;;;;4959863;28;20258;-81
2021/03/03 04:54:13;;;;;;;13.17;7.60;;;1.80;99.90;;;;;;4957992;29;20262;-81
2021/03/03 04:56:39;;;;;;;15.03;6.97;;;1.90;99.90;;;;;;4960177;28;20155;-81
2021/03/03 04:59:05;;;;;;;8.63;7.77;;;2.00;99.90;;;;;;4960350;28;20164;-81
2021/03/03 05:01:32;;;;;;;10.10;7.80;;;1.80;99.90;;;;;;4960343;28;20156;-81
2021/03/03 05:03:59;;;;;;;7.80;7.00;;;1.60;99.90;;;;;;4960287;28;20651;-81
2021/03/03 05:06:25;;;;;;;15.77;10.47;;;1.60;99.90;;;;;;4960480;28;20459;-82
2021/03/03 05:08:51;;;;;;;11.03;7.17;;;1.70;99.90;;;;;;4960290;28;20395;-81
2021/03/03 05:11:16;;;;;;;12.10;8.20;;;1.70;99.90;;;;;;4961315;28;20443;-81
2021/03/03 05:13:42;;;;;;;9.00;7.07;;;1.50;99.90;;;;;;4961542;28;20159;-81
2021/03/03 05:16:08;;;;;;;10.33;6.27;;;1.70;99.90;;;;;;4960941;28;20178;-81
2021/03/03 05:18:34;;;;;;;10.43;7.03;;;1.60;99.90;;;;;;4961062;28;20167;-81
2021/03/03 05:21:00;;;;;;;9.70;6.53;;;1.60;99.90;;;;;;4960411;28;20179;-80
2021/03/03 05:23:34;;;;;;;11.17;6.63;;;1.60;99.90;;;;;;4960792;28;20226;-81
2021/03/03 05:26:01;;;;;;;7.57;6.80;;;1.60;99.90;;;;;;4959855;28;20191;-81
2021/03/03 05:28:28;;;;;;;10.43;6.70;;;1.70;99.90;;;;;;4960156;28;20419;-81
2021/03/03 05:30:54;;;;;;;9.90;7.83;;;1.70;99.90;;;;;;4958903;29;20594;-81
2021/03/03 05:33:30;;;;;;;11.40;7.70;;;1.80;99.90;;;;;;4960744;28;20471;-80
2021/03/03 05:35:57;;;;;;;17.63;8.53;;;2.00;99.90;;;;;;4963962;28;20221;-77
2021/03/03 05:38:24;;;;;;;10.43;8.37;;;2.40;99.90;;;;;;4967967;28;20494;-80
2021/03/03 05:40:51;;;;;;;10.23;7.00;;;2.70;99.90;;;;;;4962215;28;20482;-78
2021/03/03 05:43:17;;;;;;;13.87;7.80;;;2.90;99.90;;;;;;4962543;28;20399;-77
2021/03/03 05:45:44;;;;;;;14.90;8.00;;;3.10;99.90;;;;;;4968008;28;20944;-78
2021/03/03 05:48:18;;;;;;;13.93;9.00;;;3.20;99.90;;;;;;4967751;28;20403;-77
2021/03/03 05:50:47;;;;;;;10.70;7.80;;;3.30;99.90;;;;;;4966361;29;20454;-77
2021/03/03 05:53:14;;;;;;;11.80;6.97;;;3.30;99.90;;;;;;4966678;29;20403;-78
2021/03/03 05:55:41;;;;;;;10.60;7.93;;;3.10;99.90;;;;;;4966176;29;20415;-78
2021/03/03 05:58:09;;;;;;;13.83;7.83;;;3.00;99.90;;;;;;4965896;29;20399;-78
2021/03/03 06:00:38;;;;;;;8.83;6.50;;;2.50;99.90;;;;;;4965376;28;20403;-78
2021/03/03 06:03:04;;;;;;;19.43;8.40;;;2.10;99.90;;;;;;4965350;28;20418;-77
2021/03/03 06:05:32;;;;;;;8.10;6.20;;;1.90;99.90;;;;;;4959997;28;20399;-80
2021/03/03 06:07:58;;;;;;;12.10;6.77;;;1.90;99.90;;;;;;4960351;28;20399;-80
2021/03/03 06:10:24;;;;;;;19.30;9.63;;;1.90;99.90;;;;;;4959951;28;20439;-81
2021/03/03 06:12:50;;;;;;;13.07;8.83;;;1.90;99.90;;;;;;4959724;28;20733;-82
2021/03/03 06:15:16;;;;;;;17.30;8.00;;;2.00;99.90;;;;;;4960827;28;20423;-81
2021/03/03 06:17:43;;;;;;;11.87;7.30;;;1.90;99.90;;;;;;4961522;28;20160;-81
2021/03/03 06:20:12;;;;;;;14.40;9.50;;;1.90;99.90;;;;;;4965032;28;20793;-81
2021/03/03 06:22:38;;;;;;;7.97;6.30;;;1.90;99.90;;;;;;4967164;28;20403;-79
2021/03/03 06:25:21;;;;;;;17.43;9.00;;;2.20;99.90;;;;;;4969543;28;20975;-78
2021/03/03 06:27:48;;;;;;;19.43;9.20;;;2.70;99.90;;;;;;4968570;28;20413;-79
2021/03/03 06:30:16;;;;;;;11.23;7.03;;;3.00;99.90;;;;;;4968379;28;20442;-78
2021/03/03 06:33:03;;;;;;;10.87;7.63;;;2.90;99.90;;;;;;4967990;28;20455;-78
2021/03/03 06:35:35;;;;;;;8.60;7.70;;;2.80;99.90;;;;;;4969136;28;20391;-79
2021/03/03 06:38:02;;;;;;;11.50;8.60;;;2.40;99.90;;;;;;4969424;28;20577;-80
2021/03/03 06:40:28;;;;;;;17.73;7.17;;;2.10;99.90;;;;;;4968622;28;20393;-78
2021/03/03 06:42:54;;;;;;;11.87;8.27;;;2.00;99.90;;;;;;4969262;28;20494;-78
2021/03/03 06:45:31;;;;;;;13.80;9.07;;;2.00;99.90;;;;;;4969661;28;20490;-79
2021/03/03 06:48:00;;;;;;;17.10;7.77;;;1.90;99.90;;;;;;4962736;28;20498;-79
2021/03/03 06:50:41;;;;;;;15.47;7.70;;;1.90;99.90;;;;;;4964064;29;20468;-78
2021/03/03 06:53:07;;;;;;;13.10;6.47;;;1.90;99.90;;;;;;4949126;29;20367;-78
2021/03/03 06:55:50;;;;;;;11.43;7.23;;;1.90;99.90;;;;;;4949319;29;20428;-79
2021/03/03 06:58:29;;;;;;;14.10;7.50;;;1.90;99.90;;;;;;4949324;29;20487;-79
2021/03/03 07:00:57;;;;;;;11.37;9.07;;;1.80;99.90;;;;;;4948680;29;20400;-79
2021/03/03 07:03:31;;;;;;;9.67;6.20;;;1.80;99.90;;;;;;4948724;29;20423;-79
2021/03/03 07:05:57;;;;;;;14.43;6.70;;;1.90;99.90;;;;;;4948744;29;20396;-78
2021/03/03 07:08:23;;;;;;;9.03;6.97;;;1.80;99.90;;;;;;4972676;28;20809;-81
2021/03/03 07:10:49;;;;;;;8.33;6.43;;;1.90;99.90;;;;;;4981590;28;20449;-81
2021/03/03 07:13:15;;;;;;;16.20;9.40;;;1.70;99.90;;;;;;4968609;28;20414;-81
2021/03/03 07:15:41;;;;;;;15.13;7.83;;;1.80;99.90;;;;;;4960433;28;20186;-81
2021/03/03 07:18:38;;;;;;;14.90;8.73;;;1.90;99.90;;;;;;4961950;28;20395;-81
2021/03/03 07:21:07;;;;;;;20.13;9.47;;;2.00;99.90;;;;;;4942266;29;20404;-81
2021/03/03 07:23:49;;;;;;;15.83;7.83;;;1.90;99.90;;;;;;4953918;28;20415;-79
2021/03/03 07:26:17;;;;;;;19.00;7.90;;;1.90;99.90;;;;;;4960588;28;20505;-81
2021/03/03 07:28:43;;;;;;;11.53;7.50;;;1.80;99.90;;;;;;4959278;28;20434;-80
2021/03/03 07:31:12;;;;;;;15.33;10.20;;;1.90;99.90;;;;;;4957333;28;20490;-81
2021/03/03 07:33:38;;;;;;;9.27;8.37;;;1.80;99.90;;;;;;4956975;28;20530;-79
2021/03/03 07:36:05;;;;;;;14.57;7.90;;;1.90;99.90;;;;;;4955948;28;20455;-80
2021/03/03 07:38:34;;;;;;;17.37;8.10;;;2.10;99.90;;;;;;4950913;28;20478;-80
2021/03/03 07:41:12;;;;;;;17.43;11.20;;;2.20;99.90;;;;;;4955789;28;20431;-81
2021/03/03 07:43:44;;;;;;;16.20;9.20;;;2.10;99.90;;;;;;4952778;28;20431;-82
2021/03/03 07:46:10;;;;;;;7.67;6.43;;;2.30;99.90;;;;;;4957984;28;20709;-82
2021/03/03 07:48:39;;;;;;;11.43;8.00;;;2.20;99.90;;;;;;4951840;28;21003;-82
2021/03/03 07:51:07;;;;;;;12.40;8.30;;;2.30;99.90;;;;;;4959588;28;20466;-82
2021/03/03 07:53:40;;;;;;;21.07;9.30;;;2.40;99.90;;;;;;4954528;28;20462;-82
2021/03/03 07:56:09;;;;;;;12.90;8.70;;;2.20;99.90;;;;;;4956496;28;20485;-82
2021/03/03 07:58:37;;;;;;;13.13;7.33;;;2.50;99.90;;;;;;4955867;28;20952;-82
2021/03/03 08:01:04;;;;;;;15.13;8.37;;;2.60;99.90;;;;;;4953723;28;20450;-82
2021/03/03 08:03:43;;;;;;;13.63;9.87;;;2.70;99.90;;;;;;4958596;28;20818;-82
2021/03/03 08:06:22;;;;;;;12.83;8.17;;;2.60;99.90;;;;;;4957906;29;20438;-82
2021/03/03 08:09:11;;;;;;;16.10;8.90;;;2.70;99.90;;;;;;4959986;28;20447;-82
2021/03/03 08:11:46;;;;;;;16.20;9.93;;;3.10;99.90;;;;;;4961851;28;20438;-81
2021/03/03 08:14:30;;;;;;;21.90;12.00;;;3.20;99.90;;;;;;4959854;28;20431;-81
2021/03/03 08:16:58;;;;;;;22.73;12.10;;;3.40;99.90;;;;;;4960466;28;20544;-81
2021/03/03 08:20:03;;;;;;;16.77;11.20;;;3.10;99.90;;;;;;4949567;28;20431;-82
2021/03/03 08:22:49;;;;;;;20.57;11.47;;;3.30;99.90;;;;;;4954710;28;20462;-81
2021/03/03 08:25:42;;;;;;;15.83;9.77;;;3.50;99.90;;;;;;4968053;28;20427;-80
2021/03/03 08:28:26;;;;;;;18.93;9.50;;;4.00;99.90;;;;;;4969843;28;20426;-81
2021/03/03 08:31:26;;;;;;;25.73;8.40;;;4.60;99.90;;;;;;4961524;28;20462;-83
2021/03/03 08:33:58;;;;;;;23.83;11.90;;;4.90;99.90;;;;;;4950410;28;20431;-83
2021/03/03 08:36:49;;;;;;;23.37;14.90;;;4.70;99.90;;;;;;4957197;28;20455;-82
2021/03/03 08:39:29;;;;;;;32.10;15.00;;;5.00;99.90;;;;;;4942076;29;20872;-82
2021/03/03 08:41:55;;;;;;;15.00;10.53;;;5.30;99.90;;;;;;4932771;28;20442;-81
2021/03/03 08:44:24;;;;;;;20.17;11.53;;;5.30;99.90;;;;;;4954110;28;21027;-81
2021/03/03 08:46:51;;;;;;;21.03;11.20;;;5.30;99.90;;;;;;4948768;28;20253;-81
2021/03/03 08:49:27;;;;;;;13.30;9.67;;;5.40;99.90;;;;;;4951702;28;20445;-80
2021/03/03 08:52:07;;;;;;;14.70;11.47;;;5.10;99.90;;;;;;4952814;28;20493;-80
2021/03/03 08:54:48;;;;;;;14.67;9.77;;;5.00;99.90;;;;;;4919961;29;20437;-80
2021/03/03 08:57:31;;;;;;;18.37;12.43;;;4.90;99.90;;;;;;4952716;28;20474;-80
2021/03/03 08:59:57;;;;;;;21.93;11.40;;;5.00;99.90;;;;;;4934778;29;21063;-83
2021/03/03 09:02:26;;;;;;;13.67;9.53;;;5.30;99.90;;;;;;4956122;28;20470;-81
2021/03/03 09:04:55;;;;;;;19.70;12.03;;;5.20;99.90;;;;;;4954860;28;20438;-81
2021/03/03 09:07:24;;;;;;;19.90;11.10;;;5.30;99.90;;;;;;4951642;28;20451;-81
2021/03/03 09:09:54;;;;;;;31.00;11.47;;;5.70;99.90;;;;;;4955202;29;20469;-83
2021/03/03 09:12:26;;;;;;;16.20;11.60;;;6.00;99.90;;;;;;4954054;28;20435;-79
2021/03/03 09:14:53;;;;;;;19.40;12.63;;;6.10;99.90;;;;;;4962731;28;20431;-83
2021/03/03 09:17:26;;;;;;;25.67;10.67;;;6.10;99.90;;;;;;4954067;28;20422;-84
2021/03/03 09:19:55;;;;;;;16.50;11.00;;;5.70;99.90;;;;;;4951075;28;20958;-84
2021/03/03 09:22:26;;;;;;;20.20;12.40;;;5.90;99.90;;;;;;4960807;28;20432;-82
2021/03/03 09:25:12;;;;;;;16.87;11.93;;;6.00;99.90;;;;;;4947786;28;20801;-82
2021/03/03 09:27:46;;;;;;;20.93;11.97;;;6.20;99.90;;;;;;4955693;28;20958;-81
2021/03/03 09:30:13;;;;;;;17.20;10.37;;;6.50;99.90;;;;;;4945450;29;21002;-83
2021/03/03 09:32:39;;;;;;;16.53;10.73;;;6.90;99.90;;;;;;4958326;28;20894;-83
2021/03/03 09:35:06;;;;;;;23.93;10.47;;;7.10;99.90;;;;;;4955076;28;20427;-81
2021/03/03 09:37:41;;;;;;;16.63;11.90;;;7.30;99.90;;;;;;4953488;28;20251;-82
2021/03/03 09:40:10;;;;;;;18.10;11.23;;;7.40;99.90;;;;;;4939331;29;20509;-82
2021/03/03 09:42:40;;;;;;;25.93;12.50;;;7.50;99.90;;;;;;4956103;28;20473;-85
2021/03/03 09:45:10;;;;;;;20.70;11.00;;;7.50;99.90;;;;;;4958707;28;20440;-83
2021/03/03 09:47:39;;;;;;;20.97;12.70;;;7.40;99.90;;;;;;4953183;28;20443;-82
2021/03/03 09:50:10;;;;;;;18.97;13.27;;;7.60;99.90;;;;;;4917331;29;20619;-83
2021/03/03 09:52:40;;;;;;;18.70;12.60;;;7.90;99.90;;;;;;4917775;29;20428;-83
2021/03/03 09:55:10;;;;;;;18.93;11.77;;;8.20;99.90;;;;;;4918030;29;20528;-82
2021/03/03 09:57:40;;;;;;;21.23;12.00;;;8.20;99.90;;;;;;4916732;29;20512;-84
2021/03/03 10:00:12;;;;;;;21.70;12.60;;;8.20;99.90;;;;;;4934814;29;20466;-81
2021/03/03 10:02:49;;;;;;;19.03;12.03;;;8.40;99.90;;;;;;4936469;29;20439;-81
2021/03/03 10:05:22;;;;;;;19.07;10.30;;;8.40;99.90;;;;;;4916890;29;20439;-82
2021/03/03 10:07:55;;;;;;;20.50;12.60;;;8.40;99.90;;;;;;4908610;29;21000;-82
2021/03/03 10:10:24;;;;;;;26.07;12.43;;;8.50;99.90;;;;;;4930899;29;20463;-84
2021/03/03 10:12:51;;;;;;;21.80;11.33;;;8.60;99.90;;;;;;4918744;29;20440;-82
2021/03/03 10:15:29;;;;;;;21.27;11.70;;;8.70;99.90;;;;;;4932109;29;20440;-82
2021/03/03 10:17:58;;;;;;;23.80;12.70;;;9.10;99.90;;;;;;4934383;29;20486;-84
2021/03/03 10:20:49;;;;;;;15.77;12.63;;;9.30;99.90;;;;;;4936510;29;20507;-82
2021/03/03 10:23:20;;;;;;;18.90;13.70;;;9.30;99.90;;;;;;4939975;29;20431;-83
2021/03/03 10:25:51;;;;;;;25.17;12.33;;;10.10;99.90;;;;;;4908972;29;20439;-82
2021/03/03 10:28:20;;;;;;;20.30;13.30;;;10.20;99.90;;;;;;4956216;28;20563;-83
2021/03/03 10:30:50;;;;;;;27.67;12.17;;;10.20;99.90;;;;;;4953048;28;21018;-84
2021/03/03 10:33:31;;;;;;;24.17;11.70;;;10.20;99.90;;;;;;4951562;29;20533;-82
2021/03/03 10:36:01;;;;;;;21.50;14.53;;;10.20;99.90;;;;;;4956774;28;20865;-83
2021/03/03 10:38:30;;;;;;;28.07;12.10;;;10.20;99.90;;;;;;4957085;28;20477;-84
2021/03/03 10:40:58;;;;;;;25.40;13.23;;;9.80;99.90;;;;;;4959552;29;20434;-83
2021/03/03 10:43:26;;;;;;;19.57;13.47;;;9.60;99.90;;;;;;4959795;28;20459;-83
2021/03/03 10:46:10;;;;;;;28.33;12.93;;;9.40;99.90;;;;;;4967711;28;20442;-84
2021/03/03 10:48:37;;;;;;;21.10;12.27;;;9.10;99.90;;;;;;4971435;28;20426;-83
2021/03/03 10:51:03;;;;;;;17.70;11.70;;;8.90;99.90;;;;;;4964931;28;20471;-84
2021/03/03 10:53:58;;;;;;;24.90;15.17;;;8.50;99.90;;;;;;4965089;28;20795;-84
2021/03/03 10:56:32;;;;;;;22.10;12.50;;;8.90;99.90;;;;;;4960825;28;20443;-83
2021/03/03 10:59:01;;;;;;;19.50;13.63;;;8.90;99.90;;;;;;4941391;29;20565;-83
2021/03/03 11:01:49;;;;;;;20.73;13.10;;;8.70;99.90;;;;;;4941955;29;20474;-83
2021/03/03 11:04:17;;;;;;;23.43;14.87;;;9.10;99.90;;;;;;4956521;28;20448;-81
2021/03/03 11:06:42;;;;;;;19.17;13.33;;;9.40;99.90;;;;;;4954475;28;20439;-82
2021/03/03 11:09:14;;;;;;;21.70;13.50;;;9.00;99.90;;;;;;4951282;28;20443;-82
2021/03/03 11:11:54;;;;;;;19.00;14.00;;;9.20;99.90;;;;;;4954283;28;20211;-82
2021/03/03 11:14:24;;;;;;;21.73;13.97;;;9.30;99.90;;;;;;4951325;29;20795;-83
2021/03/03 11:16:52;;;;;;;22.77;15.20;;;9.10;99.90;;;;;;4941224;29;20443;-81
2021/03/03 11:19:18;;;;;;;20.70;14.00;;;9.20;99.90;;;;;;4940499;29;20456;-83
2021/03/03 11:21:45;;;;;;;23.90;14.70;;;9.10;99.90;;;;;;4934166;29;20602;-83
2021/03/03 11:24:11;;;;;;;22.33;13.83;;;9.30;99.90;;;;;;4955548;29;20447;-84
2021/03/03 11:26:39;;;;;;;23.00;12.60;;;9.00;99.90;;;;;;4956493;28;20431;-83
2021/03/03 11:29:05;;;;;;;20.70;13.90;;;9.30;99.90;;;;;;4953103;29;20454;-84
2021/03/03 11:31:32;;;;;;;20.83;14.17;;;9.30;99.90;;;;;;4944738;29;20483;-83
2021/03/03 11:33:57;;;;;;;25.23;13.87;;;9.20;99.90;;;;;;4941954;28;20946;-83
2021/03/03 11:36:23;;;;;;;20.57;12.77;;;9.20;99.90;;;;;;4931328;29;20529;-84
2021/03/03 11:38:51;;;;;;;25.53;15.60;;;9.10;99.90;;;;;;4945725;29;20467;-83
2021/03/03 11:41:17;;;;;;;25.70;14.53;;;9.10;99.90;;;;;;4945825;29;20199;-84
2021/03/03 11:43:42;;;;;;;20.90;13.00;;;9.10;99.90;;;;;;4953316;28;20435;-83
2021/03/03 11:46:08;;;;;;;18.93;12.57;;;9.20;99.90;;;;;;4954744;28;20205;-84
2021/03/03 11:48:35;;;;;;;25.70;15.37;;;9.20;99.90;;;;;;4957515;28;20199;-83
2021/03/03 11:51:01;;;;;;;16.47;12.83;;;9.40;99.90;;;;;;4955457;28;20211;-82
2021/03/03 11:53:26;;;;;;;22.40;14.13;;;9.40;99.90;;;;;;4959280;28;20435;-83
2021/03/03 11:55:53;;;;;;;18.70;13.60;;;9.50;99.90;;;;;;4955113;28;20183;-83
2021/03/03 11:58:18;;;;;;;22.60;13.30;;;9.50;99.90;;;;;;4902017;29;20211;-83
2021/03/03 12:00:44;;;;;;;26.03;16.10;;;9.80;99.90;;;;;;4920780;29;20476;-83
2021/03/03 12:03:10;;;;;;;21.67;14.47;;;9.80;99.90;;;;;;4933013;29;20196;-82
2021/03/03 12:05:36;;;;;;;22.67;15.10;;;9.30;99.90;;;;;;4902943;29;20195;-83
2021/03/03 12:08:04;;;;;;;20.53;13.10;;;9.20;99.90;;;;;;4942289;29;20271;-84
2021/03/03 12:10:31;;;;;;;25.40;14.40;;;9.40;99.90;;;;;;4924257;29;20283;-83
2021/03/03 12:12:57;;;;;;;23.37;14.60;;;9.40;99.90;;;;;;4930475;29;20530;-83
2021/03/03 12:15:23;;;;;;;21.33;15.90;;;9.30;99.90;;;;;;4917891;29;20896;-83
2021/03/03 12:17:49;;;;;;;20.10;13.23;;;9.50;99.90;;;;;;4932940;29;20448;-84
2021/03/03 12:20:15;;;;;;;21.53;11.70;;;9.30;99.90;;;;;;4933683;29;20184;-83
2021/03/03 12:22:52;;;;;;;18.97;13.57;;;9.30;99.90;;;;;;4936577;29;20199;-82
2021/03/03 12:25:18;;;;;;;19.67;13.87;;;9.70;99.90;;;;;;4910834;29;20450;-82
2021/03/03 12:27:44;;;;;;;24.23;14.07;;;9.60;99.90;;;;;;4931150;29;20479;-83
2021/03/03 12:30:10;;;;;;;22.50;14.13;;;9.70;99.90;;;;;;4963208;28;20895;-83
2021/03/03 12:32:36;;;;;;;17.97;13.23;;;9.60;99.90;;;;;;4948673;28;20219;-82
2021/03/03 12:35:03;;;;;;;27.67;13.60;;;9.60;99.90;;;;;;4956724;28;20579;-83
2021/03/03 12:37:28;;;;;;;19.93;14.93;;;9.80;99.90;;;;;;4941014;28;20350;-84
2021/03/03 12:39:54;;;;;;;23.00;13.80;;;9.60;99.90;;;;;;4949297;28;20595;-84
2021/03/03 12:42:20;;;;;;;22.30;12.90;;;9.40;99.90;;;;;;4951608;28;20199;-83
2021/03/03 12:44:46;;;;;;;17.33;13.60;;;9.50;99.90;;;;;;4957473;28;20282;-83
2021/03/03 12:47:12;;;;;;;25.20;14.87;;;9.50;99.90;;;;;;4953651;28;20439;-83
2021/03/03 12:49:38;;;;;;;35.80;16.20;;;9.80;99.90;;;;;;4947514;28;20460;-82
2021/03/03 12:52:04;;;;;;;23.30;16.07;;;9.70;99.90;;;;;;4958032;28;20451;-82
2021/03/03 12:54:30;;;;;;;26.07;13.57;;;9.70;99.90;;;;;;4955592;28;20935;-81
2021/03/03 12:56:56;;;;;;;20.50;13.90;;;9.70;99.90;;;;;;4952686;28;20466;-83